sensor_id;sensor_type;location;lat;lon;timestamp;pressure;altitude;pressure_sealevel;temperature;humidity
55604;BME280;41468;48.838;9.330;2022-12-10T00:00:44;97111.03;;;2.43;94.79
55604;BME280;41468;48.838;9.330;2022-12-10T00:03:11;97116.19;;;2.36;95.33
55604;BME280;41468;48.838;9.330;2022-12-10T00:05:37;97111.41;;;2.57;94.86
55604;BME280;41468;48.838;9.330;2022-12-10T00:08:04;97109.94;;;2.60;93.91
55604;BME280;41468;48.838;9.330;2022-12-10T00:10:31;97114.34;;;2.52;94.03
55604;BME280;41468;48.838;9.330;2022-12-10T00:12:58;97109.84;;;2.56;93.95
55604;BME280;41468;48.838;9.330;2022-12-10T00:15:24;97113.34;;;2.73;93.29
55604;BME280;41468;48.838;9.330;2022-12-10T00:17:51;97113.00;;;2.90;92.24
55604;BME280;41468;48.838;9.330;2022-12-10T00:20:29;97108.44;;;2.91;91.81
55604;BME280;41468;48.838;9.330;2022-12-10T00:22:56;97107.91;;;3.01;91.58
55604;BME280;41468;48.838;9.330;2022-12-10T00:25:23;97110.88;;;2.96;91.16
55604;BME280;41468;48.838;9.330;2022-12-10T00:27:49;97116.94;;;2.93;91.53
55604;BME280;41468;48.838;9.330;2022-12-10T00:30:16;97117.03;;;2.96;91.16
55604;BME280;41468;48.838;9.330;2022-12-10T00:32:43;97107.63;;;2.90;91.43
55604;BME280;41468;48.838;9.330;2022-12-10T00:35:09;97107.91;;;2.85;91.56
55604;BME280;41468;48.838;9.330;2022-12-10T00:37:36;97105.47;;;2.80;92.03
55604;BME280;41468;48.838;9.330;2022-12-10T00:40:03;97107.59;;;2.58;94.16
55604;BME280;41468;48.838;9.330;2022-12-10T00:42:31;97105.53;;;2.39;95.21
55604;BME280;41468;48.838;9.330;2022-12-10T00:44:58;97108.66;;;2.41;95.18
55604;BME280;41468;48.838;9.330;2022-12-10T00:47:25;97094.94;;;2.75;92.70
55604;BME280;41468;48.838;9.330;2022-12-10T00:49:51;97096.56;;;2.79;91.76
55604;BME280;41468;48.838;9.330;2022-12-10T00:52:18;97097.53;;;2.87;91.77
55604;BME280;41468;48.838;9.330;2022-12-10T00:54:45;97095.97;;;2.86;90.99
55604;BME280;41468;48.838;9.330;2022-12-10T00:57:11;97102.22;;;2.90;90.96
55604;BME280;41468;48.838;9.330;2022-12-10T00:59:38;97104.00;;;2.98;90.57
55604;BME280;41468;48.838;9.330;2022-12-10T01:02:05;97116.28;;;2.68;92.14
55604;BME280;41468;48.838;9.330;2022-12-10T01:04:31;97116.63;;;2.50;93.57
55604;BME280;41468;48.838;9.330;2022-12-10T01:06:58;97115.16;;;2.69;92.75
55604;BME280;41468;48.838;9.330;2022-12-10T01:09:28;97119.81;;;2.84;91.36
55604;BME280;41468;48.838;9.330;2022-12-10T01:11:57;97129.47;;;2.85;91.06
55604;BME280;41468;48.838;9.330;2022-12-10T01:14:29;97125.72;;;2.90;90.97
55604;BME280;41468;48.838;9.330;2022-12-10T01:17:01;97122.88;;;2.98;90.47
55604;BME280;41468;48.838;9.330;2022-12-10T01:19:32;97137.31;;;2.62;92.34
55604;BME280;41468;48.838;9.330;2022-12-10T01:21:59;97139.81;;;2.55;93.15
55604;BME280;41468;48.838;9.330;2022-12-10T01:24:27;97146.56;;;2.49;94.09
55604;BME280;41468;48.838;9.330;2022-12-10T01:26:54;97146.38;;;2.41;94.45
55604;BME280;41468;48.838;9.330;2022-12-10T01:29:24;97154.13;;;2.43;94.14
55604;BME280;41468;48.838;9.330;2022-12-10T01:31:52;97152.31;;;2.47;94.34
55604;BME280;41468;48.838;9.330;2022-12-10T01:34:19;97160.78;;;2.61;93.10
55604;BME280;41468;48.838;9.330;2022-12-10T01:36:49;97162.03;;;2.64;92.56
55604;BME280;41468;48.838;9.330;2022-12-10T01:39:17;97162.50;;;2.54;93.71
55604;BME280;41468;48.838;9.330;2022-12-10T01:41:50;97175.47;;;2.36;95.13
55604;BME280;41468;48.838;9.330;2022-12-10T01:46:45;97173.28;;;2.13;97.41
55604;BME280;41468;48.838;9.330;2022-12-10T01:51:43;97171.75;;;2.69;93.39
55604;BME280;41468;48.838;9.330;2022-12-10T01:54:18;97177.41;;;2.63;93.17
55604;BME280;41468;48.838;9.330;2022-12-10T01:56:47;97176.69;;;2.38;95.71
55604;BME280;41468;48.838;9.330;2022-12-10T01:59:16;97175.22;;;2.41;95.74
55604;BME280;41468;48.838;9.330;2022-12-10T02:01:54;97177.13;;;2.40;95.33
55604;BME280;41468;48.838;9.330;2022-12-10T02:07:38;97171.56;;;2.61;93.24
55604;BME280;41468;48.838;9.330;2022-12-10T02:10:30;97176.81;;;2.70;92.41
55604;BME280;41468;48.838;9.330;2022-12-10T02:15:29;97172.31;;;2.74;92.01
55604;BME280;41468;48.838;9.330;2022-12-10T02:18:03;97169.56;;;2.58;93.33
55604;BME280;41468;48.838;9.330;2022-12-10T02:20:44;97161.06;;;2.44;94.17
55604;BME280;41468;48.838;9.330;2022-12-10T02:23:37;97163.56;;;2.37;94.68
55604;BME280;41468;48.838;9.330;2022-12-10T02:28:45;97152.34;;;2.35;94.79
55604;BME280;41468;48.838;9.330;2022-12-10T02:31:16;97160.59;;;2.54;93.28
55604;BME280;41468;48.838;9.330;2022-12-10T02:33:48;97154.63;;;2.61;92.68
55604;BME280;41468;48.838;9.330;2022-12-10T02:36:16;97151.25;;;2.64;92.60
55604;BME280;41468;48.838;9.330;2022-12-10T02:38:47;97155.50;;;2.65;92.61
55604;BME280;41468;48.838;9.330;2022-12-10T02:41:20;97148.19;;;2.65;92.60
55604;BME280;41468;48.838;9.330;2022-12-10T02:43:51;97146.34;;;2.54;93.07
55604;BME280;41468;48.838;9.330;2022-12-10T02:46:19;97147.16;;;2.70;92.46
55604;BME280;41468;48.838;9.330;2022-12-10T02:48:47;97150.72;;;2.58;93.17
55604;BME280;41468;48.838;9.330;2022-12-10T02:51:15;97146.31;;;2.66;92.58
55604;BME280;41468;48.838;9.330;2022-12-10T02:53:43;97137.66;;;2.60;92.75
55604;BME280;41468;48.838;9.330;2022-12-10T02:56:32;97135.97;;;2.28;94.72
55604;BME280;41468;48.838;9.330;2022-12-10T02:59:46;97134.94;;;2.45;93.31
55604;BME280;41468;48.838;9.330;2022-12-10T03:02:19;97130.06;;;2.22;94.53
55604;BME280;41468;48.838;9.330;2022-12-10T03:05:02;97129.59;;;2.20;95.65
55604;BME280;41468;48.838;9.330;2022-12-10T03:07:47;97127.47;;;2.54;93.53
55604;BME280;41468;48.838;9.330;2022-12-10T03:10:33;97125.34;;;2.47;92.88
55604;BME280;41468;48.838;9.330;2022-12-10T03:13:06;97121.56;;;2.48;92.91
55604;BME280;41468;48.838;9.330;2022-12-10T03:15:38;97117.47;;;2.54;92.62
55604;BME280;41468;48.838;9.330;2022-12-10T03:18:07;97132.78;;;2.50;92.46
55604;BME280;41468;48.838;9.330;2022-12-10T03:20:38;97131.44;;;2.72;91.29
55604;BME280;41468;48.838;9.330;2022-12-10T03:23:08;97135.47;;;2.50;92.48
55604;BME280;41468;48.838;9.330;2022-12-10T03:25:37;97136.19;;;2.35;93.92
55604;BME280;41468;48.838;9.330;2022-12-10T03:28:06;97136.50;;;2.46;92.85
55604;BME280;41468;48.838;9.330;2022-12-10T03:30:35;97134.25;;;2.48;92.84
55604;BME280;41468;48.838;9.330;2022-12-10T03:33:03;97133.09;;;2.49;92.52
55604;BME280;41468;48.838;9.330;2022-12-10T03:35:31;97135.72;;;2.45;93.16
55604;BME280;41468;48.838;9.330;2022-12-10T03:37:58;97125.13;;;2.52;93.17
55604;BME280;41468;48.838;9.330;2022-12-10T03:40:25;97127.38;;;2.50;93.38
55604;BME280;41468;48.838;9.330;2022-12-10T03:42:52;97117.19;;;2.43;93.48
55604;BME280;41468;48.838;9.330;2022-12-10T03:45:19;97111.75;;;2.28;94.25
55604;BME280;41468;48.838;9.330;2022-12-10T03:47:45;97098.44;;;2.07;95.23
55604;BME280;41468;48.838;9.330;2022-12-10T03:50:12;97105.34;;;2.32;94.08
55604;BME280;41468;48.838;9.330;2022-12-10T03:52:39;97112.44;;;2.25;94.19
55604;BME280;41468;48.838;9.330;2022-12-10T03:55:06;97119.94;;;2.31;94.01
55604;BME280;41468;48.838;9.330;2022-12-10T03:57:33;97128.06;;;2.47;93.29
55604;BME280;41468;48.838;9.330;2022-12-10T04:00:03;97123.59;;;2.39;93.68
55604;BME280;41468;48.838;9.330;2022-12-10T04:02:37;97135.03;;;2.48;93.59
55604;BME280;41468;48.838;9.330;2022-12-10T04:05:04;97144.88;;;2.56;93.31
55604;BME280;41468;48.838;9.330;2022-12-10T04:07:33;97144.41;;;2.54;93.33
55604;BME280;41468;48.838;9.330;2022-12-10T04:10:00;97143.97;;;2.52;93.21
55604;BME280;41468;48.838;9.330;2022-12-10T04:12:27;97143.66;;;2.54;93.41
55604;BME280;41468;48.838;9.330;2022-12-10T04:14:53;97161.81;;;2.57;93.38
55604;BME280;41468;48.838;9.330;2022-12-10T04:17:38;97157.16;;;2.41;94.20
55604;BME280;41468;48.838;9.330;2022-12-10T04:20:05;97158.50;;;2.48;94.18
55604;BME280;41468;48.838;9.330;2022-12-10T04:22:52;97154.38;;;2.38;94.72
55604;BME280;41468;48.838;9.330;2022-12-10T04:25:37;97154.59;;;2.33;95.37
55604;BME280;41468;48.838;9.330;2022-12-10T04:28:23;97156.28;;;2.37;95.06
55604;BME280;41468;48.838;9.330;2022-12-10T04:30:49;97156.50;;;2.32;95.21
55604;BME280;41468;48.838;9.330;2022-12-10T04:33:16;97160.75;;;2.33;94.97
55604;BME280;41468;48.838;9.330;2022-12-10T04:35:43;97168.44;;;2.31;94.79
55604;BME280;41468;48.838;9.330;2022-12-10T04:38:09;97168.84;;;2.33;94.63
55604;BME280;41468;48.838;9.330;2022-12-10T04:40:36;97176.94;;;2.33;94.33
55604;BME280;41468;48.838;9.330;2022-12-10T04:43:03;97168.34;;;2.15;95.32
55604;BME280;41468;48.838;9.330;2022-12-10T04:45:29;97173.06;;;2.06;95.77
55604;BME280;41468;48.838;9.330;2022-12-10T04:47:56;97167.34;;;2.08;95.34
55604;BME280;41468;48.838;9.330;2022-12-10T04:50:22;97179.00;;;2.12;95.31
55604;BME280;41468;48.838;9.330;2022-12-10T04:52:49;97174.19;;;2.05;95.52
55604;BME280;41468;48.838;9.330;2022-12-10T04:55:16;97177.97;;;2.16;95.61
55604;BME280;41468;48.838;9.330;2022-12-10T04:57:43;97182.03;;;2.10;95.08
55604;BME280;41468;48.838;9.330;2022-12-10T05:00:11;97184.72;;;2.10;95.39
55604;BME280;41468;48.838;9.330;2022-12-10T05:02:37;97178.22;;;2.11;95.22
55604;BME280;41468;48.838;9.330;2022-12-10T05:05:04;97183.72;;;2.03;95.28
55604;BME280;41468;48.838;9.330;2022-12-10T05:07:32;97184.28;;;1.96;95.38
55604;BME280;41468;48.838;9.330;2022-12-10T05:09:59;97184.97;;;1.93;95.98
55604;BME280;41468;48.838;9.330;2022-12-10T05:12:25;97183.19;;;1.97;95.25
55604;BME280;41468;48.838;9.330;2022-12-10T05:14:52;97187.09;;;1.87;95.95
55604;BME280;41468;48.838;9.330;2022-12-10T05:17:19;97188.56;;;1.85;96.02
55604;BME280;41468;48.838;9.330;2022-12-10T05:19:45;97179.59;;;1.93;96.33
55604;BME280;41468;48.838;9.330;2022-12-10T05:22:12;97186.19;;;1.95;95.62
55604;BME280;41468;48.838;9.330;2022-12-10T05:24:57;97174.09;;;1.89;96.10
55604;BME280;41468;48.838;9.330;2022-12-10T05:27:24;97178.47;;;1.94;95.51
55604;BME280;41468;48.838;9.330;2022-12-10T05:29:50;97175.09;;;1.97;95.31
55604;BME280;41468;48.838;9.330;2022-12-10T05:32:17;97181.25;;;2.10;94.54
55604;BME280;41468;48.838;9.330;2022-12-10T05:34:44;97184.97;;;1.93;95.16
55604;BME280;41468;48.838;9.330;2022-12-10T05:37:10;97177.88;;;2.13;94.61
55604;BME280;41468;48.838;9.330;2022-12-10T05:39:37;97184.28;;;2.08;94.45
55604;BME280;41468;48.838;9.330;2022-12-10T05:42:04;97182.50;;;2.00;94.67
55604;BME280;41468;48.838;9.330;2022-12-10T05:44:31;97187.66;;;2.05;93.90
55604;BME280;41468;48.838;9.330;2022-12-10T05:46:57;97187.66;;;2.05;93.93
55604;BME280;41468;48.838;9.330;2022-12-10T05:49:29;97188.56;;;1.85;94.69
55604;BME280;41468;48.838;9.330;2022-12-10T05:51:56;97196.31;;;1.86;95.23
55604;BME280;41468;48.838;9.330;2022-12-10T05:54:23;97191.03;;;1.90;94.82
55604;BME280;41468;48.838;9.330;2022-12-10T05:56:49;97190.81;;;1.83;95.79
55604;BME280;41468;48.838;9.330;2022-12-10T05:59:16;97198.00;;;1.91;95.30
55604;BME280;41468;48.838;9.330;2022-12-10T06:01:43;97194.28;;;1.95;94.94
55604;BME280;41468;48.838;9.330;2022-12-10T06:04:10;97198.09;;;1.94;95.56
55604;BME280;41468;48.838;9.330;2022-12-10T06:06:38;97201.13;;;1.93;94.69
55604;BME280;41468;48.838;9.330;2022-12-10T06:09:07;97200.47;;;1.84;95.57
55604;BME280;41468;48.838;9.330;2022-12-10T06:11:36;97206.94;;;1.83;95.12
55604;BME280;41468;48.838;9.330;2022-12-10T06:14:03;97208.31;;;1.89;95.09
55604;BME280;41468;48.838;9.330;2022-12-10T06:16:30;97212.47;;;1.86;95.09
55604;BME280;41468;48.838;9.330;2022-12-10T06:18:57;97210.56;;;1.87;95.12
55604;BME280;41468;48.838;9.330;2022-12-10T06:21:24;97209.09;;;1.89;95.06
55604;BME280;41468;48.838;9.330;2022-12-10T06:23:52;97215.59;;;1.88;95.14
55604;BME280;41468;48.838;9.330;2022-12-10T06:26:21;97213.81;;;1.80;95.07
55604;BME280;41468;48.838;9.330;2022-12-10T06:28:49;97219.28;;;1.96;94.88
55604;BME280;41468;48.838;9.330;2022-12-10T06:31:16;97224.47;;;1.89;94.65
55604;BME280;41468;48.838;9.330;2022-12-10T06:33:43;97231.16;;;1.83;95.14
55604;BME280;41468;48.838;9.330;2022-12-10T06:36:11;97228.16;;;1.84;95.28
55604;BME280;41468;48.838;9.330;2022-12-10T06:38:38;97228.16;;;1.84;95.10
55604;BME280;41468;48.838;9.330;2022-12-10T06:41:07;97230.72;;;1.68;95.76
55604;BME280;41468;48.838;9.330;2022-12-10T06:43:35;97231.19;;;2.07;93.78
55604;BME280;41468;48.838;9.330;2022-12-10T06:46:06;97238.91;;;2.09;93.97
55604;BME280;41468;48.838;9.330;2022-12-10T06:48:33;97236.03;;;2.02;93.69
55604;BME280;41468;48.838;9.330;2022-12-10T06:51:01;97235.88;;;1.98;94.09
55604;BME280;41468;48.838;9.330;2022-12-10T06:53:28;97238.38;;;1.91;94.11
55604;BME280;41468;48.838;9.330;2022-12-10T06:55:57;97241.94;;;1.95;93.84
55604;BME280;41468;48.838;9.330;2022-12-10T06:58:26;97245.97;;;1.76;94.73
55604;BME280;41468;48.838;9.330;2022-12-10T07:00:53;97237.44;;;1.74;95.02
55604;BME280;41468;48.838;9.330;2022-12-10T07:03:20;97244.75;;;1.74;95.32
55604;BME280;41468;48.838;9.330;2022-12-10T07:05:46;97240.16;;;1.87;94.59
55604;BME280;41468;48.838;9.330;2022-12-10T07:08:15;97224.69;;;1.84;94.41
55604;BME280;41468;48.838;9.330;2022-12-10T07:10:44;97236.81;;;1.77;95.01
55604;BME280;41468;48.838;9.330;2022-12-10T07:13:10;97246.00;;;1.89;95.13
55604;BME280;41468;48.838;9.330;2022-12-10T07:15:37;97234.31;;;1.97;94.53
55604;BME280;41468;48.838;9.330;2022-12-10T07:18:04;97244.09;;;1.89;94.84
55604;BME280;41468;48.838;9.330;2022-12-10T07:20:30;97239.72;;;1.97;94.52
55604;BME280;41468;48.838;9.330;2022-12-10T07:22:57;97247.66;;;1.93;94.48
55604;BME280;41468;48.838;9.330;2022-12-10T07:25:24;97245.09;;;1.97;94.43
55604;BME280;41468;48.838;9.330;2022-12-10T07:27:50;97251.03;;;1.90;94.32
55604;BME280;41468;48.838;9.330;2022-12-10T07:30:23;97253.38;;;2.16;94.24
55604;BME280;41468;48.838;9.330;2022-12-10T07:32:49;97253.63;;;2.24;93.08
55604;BME280;41468;48.838;9.330;2022-12-10T07:35:16;97258.88;;;2.20;93.33
55604;BME280;41468;48.838;9.330;2022-12-10T07:37:43;97261.00;;;2.14;92.75
55604;BME280;41468;48.838;9.330;2022-12-10T07:40:10;97270.88;;;2.22;93.02
55604;BME280;41468;48.838;9.330;2022-12-10T07:42:37;97269.09;;;2.27;92.60
55604;BME280;41468;48.838;9.330;2022-12-10T07:45:04;97271.78;;;2.14;93.61
55604;BME280;41468;48.838;9.330;2022-12-10T07:47:31;97275.72;;;2.17;93.51
55604;BME280;41468;48.838;9.330;2022-12-10T07:50:08;97275.03;;;2.20;93.36
55604;BME280;41468;48.838;9.330;2022-12-10T07:52:35;97275.50;;;2.22;93.37
55604;BME280;41468;48.838;9.330;2022-12-10T07:55:02;97287.06;;;2.10;94.27
55604;BME280;41468;48.838;9.330;2022-12-10T07:57:29;97287.38;;;2.09;94.50
55604;BME280;41468;48.838;9.330;2022-12-10T08:00:03;97289.06;;;2.13;93.99
55604;BME280;41468;48.838;9.330;2022-12-10T08:02:29;97302.31;;;2.06;94.15
55604;BME280;41468;48.838;9.330;2022-12-10T08:04:56;97287.06;;;2.10;93.96
55604;BME280;41468;48.838;9.330;2022-12-10T08:07:23;97293.13;;;2.07;94.46
55604;BME280;41468;48.838;9.330;2022-12-10T08:09:49;97285.22;;;2.39;98.13
55604;BME280;41468;48.838;9.330;2022-12-10T08:12:16;97293.75;;;2.04;95.05
55604;BME280;41468;48.838;9.330;2022-12-10T08:14:43;97291.75;;;2.01;94.57
55604;BME280;41468;48.838;9.330;2022-12-10T08:17:09;97289.97;;;2.05;94.50
55604;BME280;41468;48.838;9.330;2022-12-10T08:19:36;97295.25;;;2.02;94.27
55604;BME280;41468;48.838;9.330;2022-12-10T08:22:03;97302.19;;;2.03;94.56
55604;BME280;41468;48.838;9.330;2022-12-10T08:24:30;97305.22;;;2.13;94.20
55604;BME280;41468;48.838;9.330;2022-12-10T08:26:56;97314.88;;;2.14;93.44
55604;BME280;41468;48.838;9.330;2022-12-10T08:29:23;97306.69;;;2.35;93.00
55604;BME280;41468;48.838;9.330;2022-12-10T08:31:50;97303.84;;;2.44;95.20
55604;BME280;41468;48.838;9.330;2022-12-10T08:34:17;97308.59;;;2.22;93.93
55604;BME280;41468;48.838;9.330;2022-12-10T08:36:45;97309.94;;;2.41;93.66
55604;BME280;41468;48.838;9.330;2022-12-10T08:39:13;97308.00;;;2.41;92.39
55604;BME280;41468;48.838;9.330;2022-12-10T08:41:44;97310.28;;;2.27;92.08
55604;BME280;41468;48.838;9.330;2022-12-10T08:44:11;97300.16;;;2.36;91.42
55604;BME280;41468;48.838;9.330;2022-12-10T08:46:38;97299.97;;;2.29;91.19
55604;BME280;41468;48.838;9.330;2022-12-10T08:49:05;97295.03;;;2.31;91.49
55604;BME280;41468;48.838;9.330;2022-12-10T08:51:35;97295.13;;;2.22;91.56
55604;BME280;41468;48.838;9.330;2022-12-10T08:54:02;97301.97;;;2.20;91.55
55604;BME280;41468;48.838;9.330;2022-12-10T08:56:29;97305.00;;;2.18;92.10
55604;BME280;41468;48.838;9.330;2022-12-10T08:58:56;97309.03;;;2.25;91.91
55604;BME280;41468;48.838;9.330;2022-12-10T09:01:22;97313.53;;;2.33;92.23
55604;BME280;41468;48.838;9.330;2022-12-10T09:03:49;97326.56;;;2.18;92.59
55604;BME280;41468;48.838;9.330;2022-12-10T09:06:19;97325.34;;;2.93;98.28
55604;BME280;41468;48.838;9.330;2022-12-10T09:08:46;97338.78;;;2.53;91.66
55604;BME280;41468;48.838;9.330;2022-12-10T09:11:18;97333.03;;;2.54;90.59
55604;BME280;41468;48.838;9.330;2022-12-10T09:13:45;97340.69;;;2.52;91.04
55604;BME280;41468;48.838;9.330;2022-12-10T09:16:13;97328.66;;;2.50;91.63
55604;BME280;41468;48.838;9.330;2022-12-10T09:18:40;97331.25;;;2.58;90.06
55604;BME280;41468;48.838;9.330;2022-12-10T09:21:08;97334.84;;;2.62;91.37
55604;BME280;41468;48.838;9.330;2022-12-10T09:23:35;97335.50;;;2.72;91.16
55604;BME280;41468;48.838;9.330;2022-12-10T09:26:06;97337.88;;;2.61;89.96
55604;BME280;41468;48.838;9.330;2022-12-10T09:28:33;97338.53;;;2.70;89.90
55604;BME280;41468;48.838;9.330;2022-12-10T09:31:01;97340.91;;;2.59;90.39
55604;BME280;41468;48.838;9.330;2022-12-10T09:33:28;97345.84;;;2.70;89.93
55604;BME280;41468;48.838;9.330;2022-12-10T09:35:55;97349.00;;;2.72;89.69
55604;BME280;41468;48.838;9.330;2022-12-10T09:38:22;97339.31;;;2.71;88.96
55604;BME280;41468;48.838;9.330;2022-12-10T09:46:08;97345.63;;;2.62;89.50
55604;BME280;41468;48.838;9.330;2022-12-10T09:51:40;97348.06;;;2.80;89.67
55604;BME280;41468;48.838;9.330;2022-12-10T09:56:44;97346.81;;;2.90;88.66
55604;BME280;41468;48.838;9.330;2022-12-10T09:59:39;97342.44;;;2.85;87.69
55604;BME280;41468;48.838;9.330;2022-12-10T10:04:42;97347.47;;;2.99;87.17
55604;BME280;41468;48.838;9.330;2022-12-10T10:07:19;97342.53;;;2.88;87.64
55604;BME280;41468;48.838;9.330;2022-12-10T10:09:47;97344.09;;;2.90;87.71
55604;BME280;41468;48.838;9.330;2022-12-10T10:12:15;97355.19;;;3.00;87.47
55604;BME280;41468;48.838;9.330;2022-12-10T10:14:43;97352.19;;;2.90;87.76
55604;BME280;41468;48.838;9.330;2022-12-10T10:17:16;97357.72;;;2.93;87.32
55604;BME280;41468;48.838;9.330;2022-12-10T10:19:45;97357.81;;;2.84;87.70
55604;BME280;41468;48.838;9.330;2022-12-10T10:22:12;97359.97;;;3.19;90.74
55604;BME280;41468;48.838;9.330;2022-12-10T10:24:44;97360.81;;;3.07;88.15
55604;BME280;41468;48.838;9.330;2022-12-10T10:27:20;97355.97;;;3.01;87.63
55604;BME280;41468;48.838;9.330;2022-12-10T10:29:54;97348.47;;;3.06;87.21
55604;BME280;41468;48.838;9.330;2022-12-10T10:35:04;97343.06;;;3.06;87.81
55604;BME280;41468;48.838;9.330;2022-12-10T10:37:41;97350.47;;;3.09;87.60
55604;BME280;41468;48.838;9.330;2022-12-10T10:40:22;97350.81;;;3.08;87.52
55604;BME280;41468;48.838;9.330;2022-12-10T10:43:01;97347.97;;;3.17;87.74
55604;BME280;41468;48.838;9.330;2022-12-10T10:45:39;97340.78;;;3.21;86.95
55604;BME280;41468;48.838;9.330;2022-12-10T10:48:14;97347.66;;;3.06;86.45
55604;BME280;41468;48.838;9.330;2022-12-10T10:50:45;97349.25;;;3.07;86.07
55604;BME280;41468;48.838;9.330;2022-12-10T10:53:28;97341.72;;;3.00;85.16
55604;BME280;41468;48.838;9.330;2022-12-10T10:56:06;97341.47;;;3.05;84.41
55604;BME280;41468;48.838;9.330;2022-12-10T10:58:35;97337.94;;;2.89;84.98
55604;BME280;41468;48.838;9.330;2022-12-10T11:01:06;97346.19;;;3.08;83.88
55604;BME280;41468;48.838;9.330;2022-12-10T11:03:35;97353.50;;;3.08;84.56
55604;BME280;41468;48.838;9.330;2022-12-10T11:06:06;97354.97;;;3.05;84.51
55604;BME280;41468;48.838;9.330;2022-12-10T11:08:36;97363.38;;;3.16;83.55
55604;BME280;41468;48.838;9.330;2022-12-10T11:11:10;97365.06;;;3.08;83.96
55604;BME280;41468;48.838;9.330;2022-12-10T11:13:38;97356.19;;;3.08;83.88
55604;BME280;41468;48.838;9.330;2022-12-10T11:18:51;97368.66;;;3.13;83.58
55604;BME280;41468;48.838;9.330;2022-12-10T11:21:19;97367.28;;;3.31;83.11
55604;BME280;41468;48.838;9.330;2022-12-10T11:23:58;97363.22;;;3.25;82.59
55604;BME280;41468;48.838;9.330;2022-12-10T11:26:47;97374.84;;;3.13;83.05
55604;BME280;41468;48.838;9.330;2022-12-10T11:32:20;97372.97;;;3.01;82.41
55604;BME280;41468;48.838;9.330;2022-12-10T12:01:27;97380.84;;;3.06;81.67
55604;BME280;41468;48.838;9.330;2022-12-10T12:04:20;97382.38;;;3.07;83.44
55604;BME280;41468;48.838;9.330;2022-12-10T12:14:48;97375.53;;;3.10;81.87
55604;BME280;41468;48.838;9.330;2022-12-10T12:19:49;97375.16;;;3.24;82.17
55604;BME280;41468;48.838;9.330;2022-12-10T12:22:27;97370.44;;;3.21;81.90
55604;BME280;41468;48.838;9.330;2022-12-10T12:25:10;97384.38;;;3.23;81.76
55604;BME280;41468;48.838;9.330;2022-12-10T12:27:49;97387.03;;;3.35;81.31
55604;BME280;41468;48.838;9.330;2022-12-10T12:30:20;97386.16;;;3.31;81.74
55604;BME280;41468;48.838;9.330;2022-12-10T12:32:54;97385.63;;;3.25;81.06
55604;BME280;41468;48.838;9.330;2022-12-10T12:35:33;97389.97;;;3.30;81.25
55604;BME280;41468;48.838;9.330;2022-12-10T12:40:48;97398.72;;;3.39;81.71
55604;BME280;41468;48.838;9.330;2022-12-10T12:43:44;97394.97;;;3.44;80.94
55604;BME280;41468;48.838;9.330;2022-12-10T12:46:18;97398.13;;;3.46;79.62
55604;BME280;41468;48.838;9.330;2022-12-10T12:49:26;97401.75;;;3.38;80.52
55604;BME280;41468;48.838;9.330;2022-12-10T12:52:17;97401.44;;;3.27;79.16
55604;BME280;41468;48.838;9.330;2022-12-10T12:54:47;97400.72;;;3.42;79.53
55604;BME280;41468;48.838;9.330;2022-12-10T12:57:28;97399.50;;;3.40;78.86
55604;BME280;41468;48.838;9.330;2022-12-10T13:00:11;97406.81;;;3.39;79.07
55604;BME280;41468;48.838;9.330;2022-12-10T13:03:01;97419.22;;;3.28;79.60
55604;BME280;41468;48.838;9.330;2022-12-10T13:05:37;97410.22;;;3.36;80.06
55604;BME280;41468;48.838;9.330;2022-12-10T13:10:45;97418.31;;;3.64;81.15
55604;BME280;41468;48.838;9.330;2022-12-10T13:13:17;97420.25;;;3.51;78.82
55604;BME280;41468;48.838;9.330;2022-12-10T13:15:48;97428.34;;;3.51;78.93
55604;BME280;41468;48.838;9.330;2022-12-10T13:21:27;97437.50;;;3.47;80.42
55604;BME280;41468;48.838;9.330;2022-12-10T13:24:07;97429.72;;;3.45;78.62
55604;BME280;41468;48.838;9.330;2022-12-10T13:26:35;97434.50;;;3.36;78.55
55604;BME280;41468;48.838;9.330;2022-12-10T13:29:23;97433.03;;;3.26;80.50
55604;BME280;41468;48.838;9.330;2022-12-10T13:32:02;97433.69;;;3.36;79.02
55604;BME280;41468;48.838;9.330;2022-12-10T13:34:36;97429.34;;;3.19;80.32
55604;BME280;41468;48.838;9.330;2022-12-10T13:37:16;97432.34;;;3.29;80.40
55604;BME280;41468;48.838;9.330;2022-12-10T13:42:37;97437.66;;;3.26;78.40
55604;BME280;41468;48.838;9.330;2022-12-10T13:47:54;97451.00;;;3.22;78.00
55604;BME280;41468;48.838;9.330;2022-12-10T13:53:14;97461.50;;;3.12;78.89
55604;BME280;41468;48.838;9.330;2022-12-10T13:56:03;97463.97;;;3.04;78.69
55604;BME280;41468;48.838;9.330;2022-12-10T14:06:34;97483.06;;;3.12;75.76
55604;BME280;41468;48.838;9.330;2022-12-10T14:09:11;97481.72;;;3.05;76.23
55604;BME280;41468;48.838;9.330;2022-12-10T14:11:51;97484.66;;;3.00;76.99
55604;BME280;41468;48.838;9.330;2022-12-10T14:17:38;97493.28;;;3.06;75.50
55604;BME280;41468;48.838;9.330;2022-12-10T14:20:12;97498.69;;;3.06;77.58
55604;BME280;41468;48.838;9.330;2022-12-10T14:22:54;97497.91;;;3.05;78.10
55604;BME280;41468;48.838;9.330;2022-12-10T14:25:45;97509.25;;;3.11;77.05
55604;BME280;41468;48.838;9.330;2022-12-10T14:28:16;97496.00;;;3.06;76.99
55604;BME280;41468;48.838;9.330;2022-12-10T14:30:48;97500.72;;;2.97;77.65
55604;BME280;41468;48.838;9.330;2022-12-10T14:33:18;97503.50;;;2.76;80.18
55604;BME280;41468;48.838;9.330;2022-12-10T14:35:48;97505.09;;;2.77;81.77
55604;BME280;41468;48.838;9.330;2022-12-10T14:38:23;97510.38;;;2.61;82.08
55604;BME280;41468;48.838;9.330;2022-12-10T14:40:54;97516.53;;;2.61;84.00
55604;BME280;41468;48.838;9.330;2022-12-10T14:43:24;97518.78;;;2.59;84.52
55604;BME280;41468;48.838;9.330;2022-12-10T14:46:03;97516.53;;;2.61;85.77
55604;BME280;41468;48.838;9.330;2022-12-10T14:48:30;97519.88;;;2.46;86.83
55604;BME280;41468;48.838;9.330;2022-12-10T14:51:12;97527.25;;;2.37;88.33
55604;BME280;41468;48.838;9.330;2022-12-10T14:53:41;97533.06;;;2.27;89.65
55604;BME280;41468;48.838;9.330;2022-12-10T14:56:11;97536.34;;;2.32;88.85
55604;BME280;41468;48.838;9.330;2022-12-10T14:58:54;97534.13;;;2.13;89.79
55604;BME280;41468;48.838;9.330;2022-12-10T15:01:28;97539.63;;;2.17;90.16
55604;BME280;41468;48.838;9.330;2022-12-10T15:03:59;97542.78;;;2.19;90.50
55604;BME280;41468;48.838;9.330;2022-12-10T15:06:27;97544.91;;;2.13;90.53
55604;BME280;41468;48.838;9.330;2022-12-10T15:08:56;97550.56;;;2.20;91.37